Time;durP1;ratioP1;P1;durP2;ratioP2;P2;SDS_P1;SDS_P2;PMS_P1;PMS_P2;Temp;Humidity;BMP_temperature;BMP_pressure;BME280_temperature;BME280_humidity;BME280_pressure;Samples;Min_cycle;Max_cycle;Signal;HPM_P1;HPM_P2
2022/01/23 00:00:02;;;;;;;2.58;0.98;;;7.50;74.40;;;;;;5127881;28;20492;-58
2022/01/23 00:02:35;;;;;;;3.63;1.48;;;7.50;74.70;;;;;;5109505;28;20512;-58
2022/01/23 00:05:07;;;;;;;1.92;1.40;;;7.50;74.60;;;;;;5131855;28;20389;-58
2022/01/23 00:07:36;;;;;;;3.83;1.50;;;7.50;74.20;;;;;;5130296;28;20041;-58
2022/01/23 00:10:05;;;;;;;6.38;1.50;;;7.40;73.10;;;;;;5114513;28;20035;-57
2022/01/23 00:12:40;;;;;;;2.25;1.30;;;7.40;72.40;;;;;;5130768;28;20043;-58
2022/01/23 00:17:54;;;;;;;1.33;0.90;;;7.40;72.40;;;;;;5127100;27;20412;-58
2022/01/23 00:20:23;;;;;;;3.47;1.13;;;;;;;;;;5135081;27;20058;-58
2022/01/23 00:22:58;;;;;;;3.00;1.30;;;7.40;73.50;;;;;;5096768;28;20082;-58
2022/01/23 00:30:59;;;;;;;2.07;1.60;;;7.40;75.30;;;;;;5135775;27;20039;-58
2022/01/23 00:33:27;;;;;;;3.05;1.30;;;7.40;75.40;;;;;;5115366;27;20041;-58
2022/01/23 00:35:55;;;;;;;5.75;2.00;;;7.40;75.80;;;;;;5118204;27;20038;-59
2022/01/23 00:38:23;;;;;;;3.55;1.25;;;7.40;76.20;;;;;;5117433;27;20043;-58
2022/01/23 00:40:50;;;;;;;2.45;1.42;;;7.40;76.30;;;;;;5117429;27;20045;-59
2022/01/23 00:43:28;;;;;;;3.47;1.20;;;7.30;76.30;;;;;;5110809;28;20047;-59
2022/01/23 00:48:51;;;;;;;3.88;1.42;;;7.30;76.50;;;;;;5092067;28;20028;-59
2022/01/23 00:51:19;;;;;;;2.80;1.50;;;7.30;76.40;;;;;;5085083;28;20044;-59
2022/01/23 00:53:46;;;;;;;2.42;1.13;;;7.30;76.60;;;;;;5084895;28;20370;-58
2022/01/23 00:56:14;;;;;;;2.55;1.30;;;7.30;75.90;;;;;;5089107;28;20115;-59
2022/01/23 00:58:41;;;;;;;3.50;1.27;;;7.30;75.80;;;;;;5097177;28;20047;-57
2022/01/23 01:01:09;;;;;;;4.50;1.30;;;7.40;76.10;;;;;;5086991;28;20055;-59
2022/01/23 01:03:37;;;;;;;1.73;1.17;;;7.40;75.60;;;;;;5101320;28;20040;-59
2022/01/23 01:06:05;;;;;;;6.57;1.60;;;7.30;75.40;;;;;;5088263;28;20444;-58
2022/01/23 01:08:33;;;;;;;4.65;1.83;;;7.30;75.00;;;;;;5102224;28;20067;-58
2022/01/23 01:11:36;;;;;;;2.00;1.30;;;7.30;74.60;;;;;;5101832;28;20097;-58
2022/01/23 01:38:48;;;;;;;1.80;0.98;;;7.30;75.90;;;;;;5091221;28;20047;-60
2022/01/23 01:41:19;;;;;;;2.45;1.27;;;7.30;75.00;;;;;;5068631;28;20120;-58
2022/01/23 01:43:49;;;;;;;5.30;0.95;;;7.30;74.70;;;;;;5081818;28;20052;-59
2022/01/23 01:46:20;;;;;;;3.28;1.02;;;7.30;72.90;;;;;;5080238;28;20031;-59
2022/01/23 01:48:54;;;;;;;1.58;1.15;;;7.30;72.40;;;;;;5095268;28;20039;-58
2022/01/23 01:51:22;;;;;;;2.10;1.02;;;7.30;72.00;;;;;;5113376;28;20051;-60
2022/01/23 01:54:13;;;;;;;2.83;1.45;;;7.30;71.90;;;;;;5096424;28;20040;-58
2022/01/23 01:56:52;;;;;;;2.28;1.08;;;7.30;71.40;;;;;;5068002;28;20047;-59
2022/01/23 02:00:13;;;;;;;5.25;1.15;;;7.10;71.10;;;;;;5094897;28;20043;-58
2022/01/23 02:10:50;;;;;;;2.27;1.13;;;7.00;72.30;;;;;;5095870;28;20043;-55
2022/01/23 02:13:25;;;;;;;2.28;1.58;;;7.00;72.80;;;;;;5101380;28;20293;-57
2022/01/23 02:55:09;;;;;;;4.82;1.45;;;6.90;74.40;;;;;;5078733;28;20048;-57
2022/01/23 03:00:16;;;;;;;1.85;1.20;;;6.90;74.70;;;;;;5079621;28;20130;-58
2022/01/23 03:03:24;;;;;;;3.17;1.45;;;6.90;74.60;;;;;;5114520;28;20044;-59
2022/01/23 03:06:49;;;;;;;4.03;2.20;;;6.90;74.40;;;;;;5079860;28;20056;-57
2022/01/23 03:14:54;;;;;;;3.13;1.40;;;6.90;74.60;;;;;;5096206;28;20043;-59
2022/01/23 03:28:22;;;;;;;2.45;1.30;;;6.80;73.90;;;;;;5095737;28;20558;-58
2022/01/23 03:31:06;;;;;;;2.63;1.40;;;6.80;74.10;;;;;;5078945;28;20043;-57
2022/01/23 03:33:36;;;;;;;3.30;1.48;;;6.80;74.40;;;;;;5095924;28;20482;-58
2022/01/23 03:36:04;;;;;;;3.97;1.50;;;6.80;74.60;;;;;;5113974;28;20050;-58
2022/01/23 03:38:32;;;;;;;3.60;2.00;;;6.80;74.80;;;;;;5113935;28;20146;-58
2022/01/23 03:40:59;;;;;;;2.13;1.38;;;6.80;75.30;;;;;;5095884;28;20048;-58
2022/01/23 03:43:31;;;;;;;1.73;1.02;;;6.80;75.30;;;;;;5099215;28;20084;-58
2022/01/23 03:51:23;;;;;;;1.98;1.42;;;6.70;74.80;;;;;;5116643;27;20478;-59
2022/01/23 03:53:51;;;;;;;2.25;1.27;;;6.70;75.00;;;;;;5138997;27;20453;-58
2022/01/23 03:56:22;;;;;;;1.45;1.30;;;6.70;75.10;;;;;;5103574;27;20094;-58
2022/01/23 03:58:52;;;;;;;2.08;1.50;;;6.70;74.80;;;;;;5103324;27;20397;-58
2022/01/23 04:01:20;;;;;;;3.35;1.30;;;6.70;74.80;;;;;;5138495;27;20397;-58
2022/01/23 04:03:54;;;;;;;2.55;2.03;;;6.70;74.90;;;;;;5120343;27;20043;-58
2022/01/23 04:06:22;;;;;;;1.70;1.20;;;6.70;75.20;;;;;;5120264;27;20047;-59
2022/01/23 04:08:50;;;;;;;1.88;1.20;;;6.70;75.30;;;;;;5120422;27;20054;-58
2022/01/23 04:11:18;;;;;;;2.63;1.55;;;6.80;75.60;;;;;;5119916;27;20039;-59
2022/01/23 04:13:53;;;;;;;1.95;1.23;;;6.80;75.40;;;;;;5120059;27;20078;-58
2022/01/23 04:19:18;;;;;;;1.98;1.17;;;6.80;75.10;;;;;;5120291;27;20031;-58
2022/01/23 04:59:52;;;;;;;1.70;1.20;;;6.60;76.60;;;;;;5119275;27;20046;-56
2022/01/23 05:05:04;;;;;;;4.80;1.40;;;6.60;76.00;;;;;;5137312;27;20043;-55
2022/01/23 05:07:49;;;;;;;2.28;1.35;;;6.60;75.60;;;;;;5137222;27;20110;-56
2022/01/23 05:10:17;;;;;;;2.55;1.60;;;6.60;75.40;;;;;;5137202;27;20043;-56
2022/01/23 05:13:02;;;;;;;3.78;2.03;;;6.50;74.90;;;;;;5119097;27;20086;-56
2022/01/23 05:15:29;;;;;;;2.25;1.58;;;6.60;75.10;;;;;;5118674;27;20043;-55
2022/01/23 05:17:57;;;;;;;1.77;0.85;;;6.60;75.00;;;;;;5118825;27;20047;-56
2022/01/23 05:20:27;;;;;;;4.38;1.27;;;6.60;75.10;;;;;;5136908;27;20042;-57
2022/01/23 05:23:01;;;;;;;3.08;1.35;;;6.60;75.20;;;;;;5118821;27;20047;-55
2022/01/23 05:25:31;;;;;;;2.83;1.33;;;6.60;75.50;;;;;;5118870;27;20070;-56
2022/01/23 05:27:59;;;;;;;1.88;1.35;;;6.60;75.70;;;;;;5118721;27;20044;-55
2022/01/23 05:30:27;;;;;;;2.45;1.60;;;6.60;75.80;;;;;;5118968;27;20061;-55
2022/01/23 05:32:57;;;;;;;2.47;1.27;;;6.60;75.80;;;;;;5118669;27;20092;-56
2022/01/23 05:35:27;;;;;;;3.20;1.52;;;6.70;76.30;;;;;;5118638;27;20110;-57
2022/01/23 05:37:55;;;;;;;1.85;1.50;;;6.70;76.60;;;;;;5136686;27;20088;-58
2022/01/23 05:40:27;;;;;;;2.03;1.27;;;6.70;76.70;;;;;;5118387;27;20039;-58
2022/01/23 05:42:56;;;;;;;2.05;1.17;;;6.70;76.90;;;;;;5118603;27;20035;-58
2022/01/23 05:45:24;;;;;;;3.05;1.38;;;6.70;77.70;;;;;;5097898;28;20462;-58
2022/01/23 05:48:09;;;;;;;3.70;2.28;;;6.70;78.10;;;;;;5097693;28;20066;-58
2022/01/23 05:50:57;;;;;;;2.35;1.15;;;6.70;78.30;;;;;;5101881;28;20058;-58
2022/01/23 05:53:35;;;;;;;5.82;2.10;;;6.70;78.90;;;;;;5097798;28;20036;-56
2022/01/23 05:56:18;;;;;;;1.77;1.20;;;6.70;79.10;;;;;;5099919;28;20047;-58
2022/01/23 05:59:04;;;;;;;2.63;1.97;;;6.60;79.20;;;;;;5100492;28;20042;-58
2022/01/23 06:01:40;;;;;;;2.10;1.50;;;6.60;79.90;;;;;;5065185;28;20051;-58
2022/01/23 06:04:19;;;;;;;2.22;1.70;;;6.60;80.00;;;;;;5097465;28;20512;-58
2022/01/23 06:07:10;;;;;;;2.42;1.45;;;6.60;80.40;;;;;;5080702;28;20497;-58
2022/01/23 06:09:45;;;;;;;2.45;1.30;;;6.60;80.80;;;;;;5081950;28;20040;-58
2022/01/23 06:12:13;;;;;;;3.03;1.55;;;6.60;81.30;;;;;;5097632;28;20071;-58
2022/01/23 06:14:41;;;;;;;2.60;1.58;;;6.60;81.80;;;;;;5096262;28;20446;-58
2022/01/23 06:17:09;;;;;;;3.22;2.53;;;6.60;82.00;;;;;;5097112;28;20031;-58
2022/01/23 06:20:11;;;;;;;3.40;1.77;;;6.60;82.10;;;;;;5063705;28;20389;-58
2022/01/23 06:23:12;;;;;;;3.75;2.55;;;6.60;82.40;;;;;;5080859;28;20051;-58
2022/01/23 06:25:58;;;;;;;4.40;3.13;;;6.60;82.60;;;;;;5115164;28;20374;-58
2022/01/23 06:28:38;;;;;;;7.07;2.10;;;6.50;82.60;;;;;;5115154;28;20050;-57
2022/01/23 06:31:07;;;;;;;3.53;2.22;;;6.50;82.60;;;;;;5115163;28;20486;-57
2022/01/23 06:33:36;;;;;;;6.80;3.00;;;6.50;82.70;;;;;;5096871;28;20144;-56
2022/01/23 06:36:06;;;;;;;6.13;2.83;;;6.40;82.80;;;;;;5114813;28;20040;-55
2022/01/23 06:38:36;;;;;;;5.28;2.72;;;6.50;82.90;;;;;;5114873;28;20057;-56
2022/01/23 06:41:04;;;;;;;5.10;2.95;;;6.50;83.20;;;;;;5096604;28;20040;-56
2022/01/23 06:43:58;;;;;;;5.18;3.15;;;6.40;83.30;;;;;;5120075;27;20077;-56
2022/01/23 06:46:33;;;;;;;4.15;1.92;;;6.50;83.40;;;;;;5116903;27;20485;-57
2022/01/23 06:49:04;;;;;;;5.22;2.72;;;6.50;83.50;;;;;;5116634;27;20439;-58
2022/01/23 06:51:32;;;;;;;5.90;2.60;;;6.50;83.60;;;;;;5099795;27;20042;-58
2022/01/23 06:54:02;;;;;;;4.35;2.85;;;6.50;83.70;;;;;;5116587;27;20088;-58
2022/01/23 06:56:30;;;;;;;7.20;3.53;;;6.60;84.10;;;;;;5116561;27;20031;-58
2022/01/23 06:58:58;;;;;;;10.27;4.00;;;6.70;83.70;;;;;;5099418;27;20058;-58
2022/01/23 07:01:25;;;;;;;9.68;5.18;;;6.70;83.40;;;;;;5116889;27;20067;-55
2022/01/23 07:04:13;;;;;;;11.20;4.28;;;6.70;83.10;;;;;;5133906;27;20065;-56
2022/01/23 07:07:08;;;;;;;8.13;3.67;;;6.80;83.50;;;;;;5112972;27;20046;-55
2022/01/23 07:10:11;;;;;;;8.05;3.35;;;6.80;83.70;;;;;;5091461;28;20380;-55
2022/01/23 07:13:10;;;;;;;9.18;5.28;;;6.80;83.90;;;;;;5071764;27;20047;-53
2022/01/23 07:16:14;;;;;;;16.33;9.57;;;6.90;84.20;;;;;;5051346;28;20045;-55
2022/01/23 07:19:14;;;;;;;15.82;7.10;;;7.20;84.20;;;;;;5115642;27;20043;-55
2022/01/23 07:21:51;;;;;;;8.30;4.95;;;9.00;81.70;;;;;;5116298;27;20039;-57
2022/01/23 07:24:20;;;;;;;5.95;3.28;;;10.10;77.40;;;;;;5116568;28;20429;-56
2022/01/23 07:26:47;;;;;;;5.72;3.53;;;11.10;76.10;;;;;;5116298;27;20050;-57
2022/01/23 07:29:18;;;;;;;6.95;3.97;;;12.40;73.60;;;;;;5116309;27;20043;-56
2022/01/23 07:31:59;;;;;;;6.47;4.65;;;12.70;72.50;;;;;;5134588;27;20047;-57
2022/01/23 07:34:28;;;;;;;6.00;3.85;;;13.10;72.10;;;;;;5099190;28;20047;-57
2022/01/23 07:36:57;;;;;;;6.55;4.03;;;13.90;70.20;;;;;;5116046;28;20050;-55
2022/01/23 07:39:51;;;;;;;3.42;2.30;;;13.90;69.20;;;;;;5095071;28;20046;-57
2022/01/23 07:42:35;;;;;;;4.50;2.22;;;13.40;69.70;;;;;;5099233;28;20087;-56
2022/01/23 07:45:04;;;;;;;3.53;2.45;;;12.80;69.80;;;;;;5134529;28;20122;-57
2022/01/23 07:47:54;;;;;;;4.30;2.75;;;12.00;70.80;;;;;;5115830;28;20043;-56
2022/01/23 07:50:35;;;;;;;7.18;4.78;;;11.20;72.90;;;;;;5134333;28;20043;-55
2022/01/23 07:53:12;;;;;;;8.82;4.70;;;10.70;75.00;;;;;;5116160;28;20067;-56
2022/01/23 07:56:02;;;;;;;6.47;3.47;;;10.80;75.30;;;;;;5119956;28;20081;-56
2022/01/23 07:58:49;;;;;;;6.90;4.32;;;11.30;74.60;;;;;;5134510;28;20043;-57
2022/01/23 08:01:31;;;;;;;4.20;2.30;;;11.80;73.50;;;;;;5116086;28;20035;-57
2022/01/23 08:04:22;;;;;;;3.88;2.08;;;12.00;73.30;;;;;;5125761;28;20047;-56
2022/01/23 08:07:06;;;;;;;5.47;2.25;;;12.00;73.50;;;;;;5099025;28;20047;-56
2022/01/23 08:09:59;;;;;;;5.20;2.92;;;12.20;73.60;;;;;;5134237;28;20043;-57
2022/01/23 08:12:29;;;;;;;4.15;1.98;;;12.50;72.60;;;;;;5116271;28;20039;-55
2022/01/23 08:14:58;;;;;;;4.65;2.22;;;12.80;72.30;;;;;;5134198;28;20078;-57
2022/01/23 08:17:28;;;;;;;5.68;3.65;;;13.00;72.00;;;;;;5115715;28;20133;-55
2022/01/23 08:19:58;;;;;;;29.60;20.15;;;12.90;71.40;;;;;;5115981;28;20043;-56
2022/01/23 08:22:27;;;;;;;10.18;9.15;;;12.60;72.00;;;;;;5133950;28;20074;-57
2022/01/23 08:24:56;;;;;;;6.82;3.90;;;12.10;72.90;;;;;;5115896;28;20054;-55
2022/01/23 08:27:25;;;;;;;6.45;2.72;;;11.70;74.00;;;;;;5115483;28;20039;-57
2022/01/23 08:29:57;;;;;;;3.53;2.33;;;11.20;75.20;;;;;;5134023;28;20130;-55
2022/01/23 08:32:25;;;;;;;4.70;3.25;;;10.80;75.90;;;;;;5098725;28;20043;-56
2022/01/23 08:34:53;;;;;;;7.72;3.28;;;10.40;76.50;;;;;;5134091;28;20043;-57
2022/01/23 08:37:21;;;;;;;6.38;3.10;;;10.10;77.20;;;;;;5134079;27;20394;-54
2022/01/23 08:39:49;;;;;;;7.10;3.33;;;10.10;78.00;;;;;;5137506;27;20051;-55
2022/01/23 08:42:18;;;;;;;4.35;3.33;;;10.20;78.60;;;;;;5119336;27;20086;-57
2022/01/23 08:44:47;;;;;;;5.78;3.42;;;10.20;78.00;;;;;;5133843;27;20050;-56
2022/01/23 08:47:15;;;;;;;6.20;3.65;;;10.20;78.20;;;;;;5136106;27;20055;-57
2022/01/23 08:49:48;;;;;;;5.95;3.17;;;10.30;78.60;;;;;;5137495;27;20127;-57
2022/01/23 08:52:19;;;;;;;6.47;2.95;;;10.30;78.30;;;;;;5137327;27;20067;-56
2022/01/23 08:54:50;;;;;;;6.07;4.30;;;10.40;78.40;;;;;;5119233;27;20039;-58
2022/01/23 08:57:19;;;;;;;4.63;3.15;;;10.80;77.90;;;;;;5137282;27;20075;-58
2022/01/23 08:59:47;;;;;;;5.75;3.17;;;11.30;77.20;;;;;;5137174;27;20118;-57
2022/01/23 09:02:16;;;;;;;7.20;4.00;;;11.50;76.20;;;;;;5137413;27;20097;-57
2022/01/23 09:04:44;;;;;;;5.85;4.25;;;11.70;75.10;;;;;;5119316;27;20039;-57
2022/01/23 09:07:13;;;;;;;6.03;4.10;;;11.80;74.50;;;;;;5137302;27;20042;-58
2022/01/23 09:09:41;;;;;;;5.38;3.30;;;11.70;74.40;;;;;;5118886;27;20104;-58
2022/01/23 09:14:50;;;;;;;5.88;4.10;;;11.20;74.60;;;;;;5118594;27;20047;-58
2022/01/23 09:17:18;;;;;;;5.95;3.47;;;11.00;75.30;;;;;;5118614;27;20511;-59
2022/01/23 09:19:48;;;;;;;7.25;4.50;;;10.80;75.30;;;;;;5136827;27;20074;-58
2022/01/23 09:22:15;;;;;;;6.70;5.18;;;10.70;76.20;;;;;;5117814;27;20124;-56
2022/01/23 09:24:43;;;;;;;9.23;5.15;;;10.60;76.30;;;;;;5136963;27;20035;-55
2022/01/23 09:27:18;;;;;;;7.65;5.78;;;10.40;76.40;;;;;;5121805;27;20037;-56
2022/01/23 09:29:50;;;;;;;6.83;4.40;;;10.40;76.50;;;;;;5135621;27;20497;-58
2022/01/23 09:32:20;;;;;;;7.22;4.85;;;10.20;76.60;;;;;;5131597;27;20043;-59
2022/01/23 09:34:51;;;;;;;5.95;4.20;;;10.10;77.10;;;;;;5134863;27;20045;-57
2022/01/23 09:37:20;;;;;;;5.15;3.58;;;10.30;77.70;;;;;;5097913;27;20054;-58
2022/01/23 09:39:49;;;;;;;8.32;3.60;;;10.30;77.60;;;;;;5117388;27;20035;-57
2022/01/23 09:42:23;;;;;;;5.35;3.22;;;10.30;77.90;;;;;;5121787;27;20129;-58
2022/01/23 09:44:52;;;;;;;4.95;2.92;;;10.50;77.50;;;;;;5134953;27;20035;-57
2022/01/23 09:47:21;;;;;;;5.30;3.47;;;10.50;76.70;;;;;;5132429;27;20389;-56
2022/01/23 09:49:51;;;;;;;5.07;2.80;;;10.50;77.20;;;;;;5134083;27;20067;-54
2022/01/23 09:52:20;;;;;;;5.45;2.35;;;10.40;77.10;;;;;;5134323;27;20043;-58
2022/01/23 09:55:00;;;;;;;3.63;2.38;;;10.30;77.00;;;;;;5134903;27;20085;-55
2022/01/23 09:57:31;;;;;;;4.85;3.17;;;10.10;77.40;;;;;;5124772;27;20360;-56
2022/01/23 10:00:01;;;;;;;4.10;2.72;;;9.90;77.70;;;;;;5135044;27;20039;-56
2022/01/23 10:02:29;;;;;;;4.72;2.78;;;9.70;78.20;;;;;;5133191;27;20095;-56
2022/01/23 10:05:01;;;;;;;4.80;3.10;;;9.70;78.30;;;;;;5134176;27;20449;-56
2022/01/23 10:07:29;;;;;;;3.83;2.55;;;9.70;78.50;;;;;;5130835;27;20063;-56
2022/01/23 10:10:09;;;;;;;4.28;2.45;;;9.70;78.70;;;;;;5116099;27;20366;-56
2022/01/23 10:12:55;;;;;;;3.45;2.10;;;9.60;79.00;;;;;;5115284;27;20404;-55
2022/01/23 10:15:27;;;;;;;6.00;2.30;;;9.60;78.80;;;;;;5134362;27;20035;-55
2022/01/23 10:17:55;;;;;;;5.93;2.42;;;9.60;78.80;;;;;;5114918;27;20221;-55
2022/01/23 10:20:24;;;;;;;6.57;2.58;;;9.50;78.80;;;;;;5115692;27;20126;-56
2022/01/23 10:22:54;;;;;;;5.90;2.63;;;9.30;78.50;;;;;;5121218;27;20038;-54
2022/01/23 10:25:25;;;;;;;4.95;2.47;;;9.30;78.90;;;;;;5134234;27;20088;-56
2022/01/23 10:28:08;;;;;;;7.38;3.47;;;9.30;79.20;;;;;;5129018;27;20130;-59
2022/01/23 10:30:46;;;;;;;6.88;2.97;;;9.20;79.80;;;;;;5123655;27;20389;-59
2022/01/23 10:33:16;;;;;;;4.53;2.58;;;9.20;80.50;;;;;;5114258;27;20031;-59
2022/01/23 10:36:06;;;;;;;4.65;2.80;;;9.30;79.90;;;;;;5134283;27;20043;-59
2022/01/23 10:38:40;;;;;;;5.07;2.70;;;9.30;79.60;;;;;;5124618;27;20574;-59
2022/01/23 10:47:31;;;;;;;5.85;3.30;;;9.20;79.20;;;;;;5094453;28;20083;-60
2022/01/23 10:50:01;;;;;;;4.40;2.75;;;9.30;79.00;;;;;;5114322;28;20093;-59
2022/01/23 10:52:35;;;;;;;5.38;2.95;;;9.30;77.60;;;;;;5095676;28;20055;-59
2022/01/23 10:55:04;;;;;;;4.22;3.25;;;9.40;77.60;;;;;;5113686;28;20085;-60
2022/01/23 10:57:42;;;;;;;4.75;2.55;;;9.50;76.30;;;;;;5095075;28;20039;-59
2022/01/23 11:00:20;;;;;;;3.90;2.65;;;9.50;76.00;;;;;;5113124;28;20546;-60
2022/01/23 11:02:48;;;;;;;4.40;2.28;;;9.70;75.50;;;;;;5095145;28;20048;-59
2022/01/23 11:05:17;;;;;;;5.30;3.25;;;9.90;75.30;;;;;;5113460;28;20035;-59
2022/01/23 11:07:47;;;;;;;5.43;2.90;;;10.00;75.20;;;;;;5095539;28;20075;-60
2022/01/23 11:10:18;;;;;;;4.07;2.78;;;10.10;73.60;;;;;;5112645;28;20036;-60
2022/01/23 11:18:10;;;;;;;5.28;2.65;;;10.70;72.20;;;;;;5114481;28;20122;-60
2022/01/23 11:20:38;;;;;;;9.82;3.95;;;11.00;71.40;;;;;;5114073;28;20109;-60
2022/01/23 11:23:27;;;;;;;7.15;3.70;;;11.20;71.90;;;;;;5112872;28;20043;-59
2022/01/23 11:25:57;;;;;;;3.97;2.78;;;11.20;71.40;;;;;;5113911;28;20549;-59
2022/01/23 11:28:38;;;;;;;5.20;2.85;;;11.30;71.60;;;;;;5113019;28;20093;-59
2022/01/23 11:31:09;;;;;;;5.85;3.05;;;11.00;72.10;;;;;;5112939;28;20050;-59
2022/01/23 11:33:38;;;;;;;4.70;3.20;;;10.90;72.20;;;;;;5112729;28;20043;-59
2022/01/23 11:36:06;;;;;;;4.00;2.40;;;10.90;72.60;;;;;;5113320;28;20077;-60
2022/01/23 11:38:34;;;;;;;6.07;3.15;;;11.10;73.00;;;;;;5112058;28;20053;-59
2022/01/23 11:54:51;;;;;;;;;;;11.00;69.30;;;;;;5112942;28;20036;-60
2022/01/23 11:57:35;;;;;;;5.82;3.90;;;11.00;69.60;;;;;;5112088;28;19930;-60
2022/01/23 12:00:23;;;;;;;5.43;2.63;;;10.90;69.50;;;;;;5095639;28;20039;-60
2022/01/23 12:03:06;;;;;;;6.03;2.47;;;11.00;69.80;;;;;;5113489;28;20114;-60
2022/01/23 12:05:37;;;;;;;5.72;2.35;;;11.10;70.20;;;;;;5095221;28;20036;-60
2022/01/23 12:08:30;;;;;;;4.25;2.33;;;11.20;69.80;;;;;;5112097;28;20118;-59
2022/01/23 12:11:43;;;;;;;5.50;2.20;;;11.40;69.90;;;;;;5112698;28;20155;-59
2022/01/23 12:17:05;;;;;;;3.63;2.20;;;11.30;67.10;;;;;;5098353;28;20163;-59
2022/01/23 12:19:39;;;;;;;4.97;2.13;;;11.50;68.80;;;;;;5116767;28;20176;-59
2022/01/23 12:22:29;;;;;;;3.67;1.90;;;11.50;66.00;;;;;;5116830;28;20085;-59
2022/01/23 12:25:05;;;;;;;6.50;2.08;;;11.50;64.60;;;;;;5117010;28;20058;-60
2022/01/23 12:27:33;;;;;;;4.00;2.05;;;11.50;64.40;;;;;;5116368;28;20431;-59
2022/01/23 12:30:11;;;;;;;3.60;2.30;;;11.50;65.50;;;;;;5116328;28;20040;-59
2022/01/23 12:32:40;;;;;;;4.22;1.52;;;11.50;65.40;;;;;;5115179;28;20117;-60
2022/01/23 12:35:10;;;;;;;3.28;1.88;;;11.50;65.60;;;;;;5115396;28;20042;-60
2022/01/23 12:37:58;;;;;;;2.60;1.38;;;11.50;65.80;;;;;;5116814;28;20032;-59
2022/01/23 12:40:40;;;;;;;4.15;1.80;;;11.40;64.80;;;;;;5098321;28;20061;-60
2022/01/23 12:43:11;;;;;;;2.42;1.55;;;11.30;65.30;;;;;;5097983;28;20039;-60
2022/01/23 12:45:58;;;;;;;4.25;1.42;;;11.30;67.80;;;;;;5116001;28;20416;-60
2022/01/23 12:48:38;;;;;;;2.93;1.70;;;11.40;70.50;;;;;;5115674;28;20039;-60
2022/01/23 12:51:07;;;;;;;1.88;1.20;;;11.50;66.10;;;;;;5116628;28;20285;-60
2022/01/23 12:53:43;;;;;;;3.72;1.50;;;11.40;63.90;;;;;;5116493;28;20040;-60
2022/01/23 12:56:13;;;;;;;2.95;1.38;;;11.30;64.20;;;;;;5116593;28;20072;-60
2022/01/23 12:58:42;;;;;;;2.22;1.33;;;11.20;64.70;;;;;;5116889;28;20040;-60
2022/01/23 13:01:28;;;;;;;6.57;2.10;;;11.10;65.30;;;;;;5116521;28;20079;-60
2022/01/23 13:04:01;;;;;;;2.60;1.25;;;11.00;65.30;;;;;;5116524;28;20043;-60
2022/01/23 13:06:41;;;;;;;3.88;1.67;;;10.90;65.40;;;;;;5115804;28;20047;-60
2022/01/23 13:31:45;;;;;;;1.98;1.05;;;10.80;63.90;;;;;;5115633;28;20827;-59
2022/01/23 13:34:49;;;;;;;3.67;1.98;;;10.70;64.70;;;;;;5114657;28;20046;-60
2022/01/23 13:37:20;;;;;;;6.72;1.98;;;10.50;64.70;;;;;;5102051;28;20044;-60
2022/01/23 13:39:57;;;;;;;3.00;1.27;;;10.60;64.90;;;;;;5115800;28;20048;-60
2022/01/23 13:59:21;;;;;;;3.63;1.35;;;10.40;66.40;;;;;;5115347;28;20717;-60
2022/01/23 14:04:18;;;;;;;1.52;1.15;;;10.20;66.50;;;;;;5115119;28;20039;-60
2022/01/23 14:06:48;;;;;;;7.40;1.50;;;10.20;66.30;;;;;;5115229;28;20097;-60
2022/01/23 14:09:17;;;;;;;4.70;1.40;;;10.10;66.50;;;;;;5114999;28;20040;-60
2022/01/23 14:11:46;;;;;;;3.25;1.45;;;10.10;67.90;;;;;;5115129;28;20055;-60
2022/01/23 14:14:13;;;;;;;2.22;1.52;;;10.10;69.00;;;;;;5115358;28;20118;-59
2022/01/23 14:16:42;;;;;;;3.47;1.48;;;10.10;69.20;;;;;;5096960;28;20044;-60
2022/01/23 14:19:18;;;;;;;5.65;2.42;;;10.10;69.60;;;;;;5114924;28;20054;-59
2022/01/23 14:21:50;;;;;;;3.47;1.58;;;10.10;70.20;;;;;;5113791;28;20089;-59
2022/01/23 14:24:25;;;;;;;2.65;1.50;;;10.00;69.70;;;;;;5114984;28;20051;-59
2022/01/23 14:27:01;;;;;;;1.95;1.38;;;10.10;68.40;;;;;;5114785;28;20035;-59
2022/01/23 14:29:30;;;;;;;4.75;1.48;;;9.90;68.50;;;;;;5114269;28;20040;-59
2022/01/23 14:32:19;;;;;;;3.55;2.08;;;9.90;67.60;;;;;;5114123;28;20039;-59
2022/01/23 14:34:47;;;;;;;3.00;2.20;;;9.80;67.50;;;;;;5095588;28;20113;-59
2022/01/23 14:37:25;;;;;;;3.55;2.13;;;9.80;67.30;;;;;;5114056;28;20547;-60
2022/01/23 14:40:08;;;;;;;4.85;1.67;;;9.80;67.30;;;;;;5114825;28;20385;-60
2022/01/23 14:42:36;;;;;;;3.90;1.67;;;9.70;67.70;;;;;;5114601;28;20047;-60
2022/01/23 14:45:08;;;;;;;3.92;1.83;;;9.60;68.20;;;;;;5114605;28;20031;-59
2022/01/23 14:47:38;;;;;;;7.85;2.30;;;9.60;69.20;;;;;;5114756;28;20055;-59
2022/01/23 14:50:10;;;;;;;5.63;2.30;;;9.50;69.70;;;;;;5114568;28;20102;-60
2022/01/23 14:52:40;;;;;;;4.75;2.08;;;9.50;69.70;;;;;;5114522;28;20043;-60
2022/01/23 14:55:08;;;;;;;2.22;1.50;;;9.50;70.10;;;;;;5114440;28;20486;-59
2022/01/23 14:57:39;;;;;;;3.63;2.05;;;9.50;70.40;;;;;;5112919;28;20042;-60
2022/01/23 15:00:08;;;;;;;4.80;1.80;;;9.50;71.00;;;;;;5113441;28;20054;-59
2022/01/23 15:02:36;;;;;;;8.70;1.73;;;9.50;71.20;;;;;;5114453;28;20093;-59
2022/01/23 15:05:04;;;;;;;3.08;1.65;;;9.50;71.30;;;;;;5114076;28;20105;-59
2022/01/23 15:07:42;;;;;;;3.75;2.00;;;9.50;71.90;;;;;;5113463;28;20035;-59
2022/01/23 15:10:13;;;;;;;3.15;1.90;;;9.50;72.30;;;;;;5113930;28;20504;-59
2022/01/23 15:12:41;;;;;;;3.35;1.90;;;9.60;72.80;;;;;;5113692;28;20044;-59
2022/01/23 15:15:09;;;;;;;4.30;2.33;;;9.50;73.40;;;;;;5112491;28;20042;-59
2022/01/23 15:17:38;;;;;;;5.00;2.25;;;9.50;73.80;;;;;;5114119;28;20055;-59
2022/01/23 15:20:08;;;;;;;4.70;2.20;;;9.50;74.00;;;;;;5095583;28;20389;-59
2022/01/23 15:22:36;;;;;;;11.82;2.42;;;9.50;74.50;;;;;;5113740;28;20047;-59
2022/01/23 15:25:08;;;;;;;10.48;3.78;;;9.40;74.90;;;;;;5113716;28;20048;-60
2022/01/23 15:27:37;;;;;;;6.72;3.47;;;9.40;75.10;;;;;;5114140;28;20043;-60
2022/01/23 15:30:07;;;;;;;13.45;5.72;;;9.40;75.40;;;;;;5114169;28;20032;-60
2022/01/23 15:32:35;;;;;;;9.85;5.03;;;9.40;75.80;;;;;;5113696;28;20032;-60
2022/01/23 15:35:04;;;;;;;7.63;4.38;;;9.30;76.20;;;;;;5113773;28;20101;-60
2022/01/23 15:37:32;;;;;;;10.93;5.05;;;9.30;76.80;;;;;;5113661;28;20119;-60
2022/01/23 15:40:00;;;;;;;14.45;6.97;;;9.30;77.10;;;;;;5113966;28;20427;-60
2022/01/23 15:42:27;;;;;;;17.85;7.18;;;9.10;77.50;;;;;;5113704;28;20089;-60
2022/01/23 15:44:55;;;;;;;23.23;11.52;;;9.10;77.90;;;;;;5113753;28;20516;-60
2022/01/23 15:47:23;;;;;;;22.77;10.68;;;9.10;78.30;;;;;;5098851;28;20056;-59
2022/01/23 15:49:51;;;;;;;16.65;5.70;;;9.10;78.90;;;;;;5099632;28;20046;-60
2022/01/23 15:52:18;;;;;;;8.48;3.67;;;9.10;78.80;;;;;;5099829;28;20040;-60
2022/01/23 15:54:46;;;;;;;6.93;3.72;;;9.10;78.60;;;;;;5099777;28;20036;-60
2022/01/23 15:57:14;;;;;;;7.50;4.35;;;9.00;78.60;;;;;;5099325;28;20040;-59
2022/01/23 15:59:42;;;;;;;9.85;4.00;;;9.00;78.60;;;;;;5099904;28;20462;-59
2022/01/23 16:02:09;;;;;;;6.38;4.55;;;8.90;78.90;;;;;;5099454;28;20040;-59
2022/01/23 16:04:38;;;;;;;6.70;4.47;;;8.90;79.00;;;;;;5098872;28;20564;-59
2022/01/23 16:07:16;;;;;;;5.13;2.92;;;8.90;79.50;;;;;;5099627;28;20044;-59
2022/01/23 16:09:45;;;;;;;6.10;3.97;;;8.90;79.40;;;;;;5081270;28;20040;-59
2022/01/23 16:12:15;;;;;;;9.30;3.88;;;8.90;79.30;;;;;;5098922;28;20437;-59
2022/01/23 16:15:01;;;;;;;6.68;3.97;;;8.90;79.40;;;;;;5083983;28;20067;-59
2022/01/23 16:17:29;;;;;;;4.15;3.05;;;8.80;79.40;;;;;;5099546;28;20044;-59
2022/01/23 16:19:58;;;;;;;4.25;2.83;;;8.80;79.00;;;;;;5099912;28;20063;-59
2022/01/23 16:22:26;;;;;;;4.80;2.40;;;8.80;79.10;;;;;;5099877;28;20060;-59
2022/01/23 16:24:54;;;;;;;6.80;2.53;;;8.80;79.10;;;;;;5081945;28;20060;-59
2022/01/23 16:27:22;;;;;;;5.95;3.22;;;8.70;79.30;;;;;;5099576;28;20063;-59
2022/01/23 16:30:00;;;;;;;4.38;2.80;;;8.70;79.50;;;;;;5099563;28;20510;-59
2022/01/23 16:32:29;;;;;;;7.18;3.03;;;8.70;79.70;;;;;;5099688;28;20048;-59
2022/01/23 16:34:57;;;;;;;7.00;3.33;;;8.60;80.00;;;;;;5099801;28;20040;-59
2022/01/23 16:37:24;;;;;;;5.65;2.78;;;8.70;79.90;;;;;;5099272;28;20094;-59
2022/01/23 16:39:52;;;;;;;7.75;3.55;;;8.70;79.70;;;;;;5098494;28;20531;-59
2022/01/23 16:42:20;;;;;;;5.20;2.55;;;8.70;79.80;;;;;;5099235;28;20508;-59
2022/01/23 16:44:49;;;;;;;5.72;2.28;;;8.70;80.10;;;;;;5099459;28;20126;-59
2022/01/23 16:47:16;;;;;;;4.15;2.72;;;8.70;80.50;;;;;;5099508;28;20539;-59
2022/01/23 16:49:44;;;;;;;3.25;2.00;;;8.70;80.80;;;;;;5099192;28;20040;-59
2022/01/23 16:52:12;;;;;;;3.33;2.60;;;8.70;80.90;;;;;;5080443;28;20405;-60
2022/01/23 16:54:39;;;;;;;9.70;3.58;;;8.70;81.10;;;;;;5097444;28;20405;-59
2022/01/23 16:57:18;;;;;;;6.88;3.70;;;8.70;81.40;;;;;;5099163;28;20036;-59
2022/01/23 16:59:46;;;;;;;3.72;2.83;;;8.80;81.90;;;;;;5094899;28;20451;-59
2022/01/23 17:02:14;;;;;;;4.25;1.88;;;8.70;82.20;;;;;;5095773;28;20093;-59
2022/01/23 17:04:41;;;;;;;5.72;2.92;;;8.70;82.60;;;;;;5095443;28;20097;-59
2022/01/23 17:07:09;;;;;;;5.93;3.30;;;8.70;82.80;;;;;;5077291;28;20032;-60
2022/01/23 17:09:38;;;;;;;3.25;1.95;;;8.80;82.80;;;;;;5077209;28;20059;-60